Hav Nordic — OZ2119 — position and weather

sailwx.info

Track history (hours):
 
Tides and Currents Weather Stations Pressure Air Temp Water Temp Dewpoint Dewpoint Depression Visibility Wind Speed Wind Dir Waves Ship Positions

Hav Nordic

Last reported at 2017-Dec-17 17:28 UTC. Time now 2017-Dec-17 17:48 UTC.
Position N 63°49' E 009°38'.

Length 75 m; draft 6 m.

Type: Cargo ship. MMSI: 231812000.

Date/timePositionNaut miles runAvg speedWind from/ knotsBaromVisibWave heightAir tempDewpointWater temp
2017-Dec-17 17:28N 63°49' E 009°38'0 0.0
2017-Dec-17 16:58N 63°49' E 009°38'0 0.0
2017-Dec-17 16:28N 63°49' E 009°38'0 0.0
2017-Dec-17 15:58N 63°49' E 009°38'0 0.0
2017-Dec-17 15:28N 63°49' E 009°38'0 0.0
2017-Dec-17 14:58N 63°49' E 009°38'0 0.0
2017-Dec-17 14:28N 63°49' E 009°38'0 0.0
2017-Dec-17 13:58N 63°49' E 009°38'0 0.0
2017-Dec-17 13:28N 63°49' E 009°38'0 0.0
2017-Dec-17 12:58N 63°49' E 009°38'0 0.0
2017-Dec-17 12:28N 63°49' E 009°38'0 0.0
2017-Dec-17 11:58N 63°49' E 009°38'0 0.0
2017-Dec-17 11:28N 63°49' E 009°38'0 0.0
2017-Dec-17 10:58N 63°49' E 009°38'0 0.0
2017-Dec-17 10:28N 63°49' E 009°38'0 0.0
2017-Dec-17 09:58N 63°49' E 009°38'0 0.0
2017-Dec-17 09:28N 63°49' E 009°38'0 0.0
2017-Dec-17 08:58N 63°49' E 009°38'0 0.0
2017-Dec-17 08:28N 63°49' E 009°38'0 0.0
2017-Dec-17 07:58N 63°49' E 009°38'0 0.0
2017-Dec-17 07:28N 63°49' E 009°38'0 0.0
2017-Dec-17 06:58N 63°49' E 009°38'0 0.0
2017-Dec-17 06:28N 63°49' E 009°38'0 0.0
2017-Dec-17 05:58N 63°49' E 009°38'0 0.0
2017-Dec-17 05:28N 63°49' E 009°38'0 0.0
2017-Dec-17 04:58N 63°49' E 009°38'0 0.0
2017-Dec-17 04:28N 63°49' E 009°38'0 0.0
2017-Dec-17 03:58N 63°49' E 009°38'0 0.0
2017-Dec-17 03:28N 63°49' E 009°38'0 0.0
2017-Dec-17 02:58N 63°49' E 009°38'0 0.0
2017-Dec-17 02:28N 63°49' E 009°38'0 0.0
2017-Dec-17 01:58N 63°49' E 009°38'0 0.0
2017-Dec-17 01:28N 63°49' E 009°38'0 0.0
2017-Dec-17 00:58N 63°49' E 009°38'0 0.0
2017-Dec-17 00:28N 63°49' E 009°38'0 0.0
2017-Dec-16 23:58N 63°49' E 009°38'0 0.0
2017-Dec-16 23:28N 63°49' E 009°38'0 0.0
2017-Dec-16 22:58N 63°49' E 009°38'0 0.0
2017-Dec-16 22:28N 63°49' E 009°38'0 0.0
2017-Dec-16 21:58N 63°49' E 009°38'0 0.0
2017-Dec-16 21:28N 63°49' E 009°38'0 0.0
2017-Dec-16 20:58N 63°49' E 009°38'0 0.0
2017-Dec-16 20:28N 63°49' E 009°38'0 0.0
2017-Dec-16 19:58N 63°49' E 009°38'0 0.0
2017-Dec-16 19:28N 63°49' E 009°38'0 0.0
2017-Dec-16 18:58N 63°49' E 009°38'0 0.0
2017-Dec-16 18:28N 63°49' E 009°38'0 0.0
2017-Dec-16 17:58N 63°49' E 009°38'0 0.0
2017-Dec-16 17:28N 63°49' E 009°38'0 0.0
2017-Dec-16 16:58N 63°49' E 009°38'0 0.0
2017-Dec-16 16:28N 63°49' E 009°38'0 0.0
2017-Dec-16 15:58N 63°49' E 009°38'0 0.0
2017-Dec-16 15:28N 63°49' E 009°38'0 0.0
2017-Dec-16 14:58N 63°49' E 009°38'0 0.0
2017-Dec-16 14:28N 63°49' E 009°38'0 0.0
2017-Dec-16 13:58N 63°49' E 009°38'0 0.0
2017-Dec-16 13:28N 63°49' E 009°38'0 0.0
2017-Dec-16 12:58N 63°49' E 009°38'0 0.0
2017-Dec-16 12:28N 63°49' E 009°38'0 0.0
2017-Dec-16 11:58N 63°49' E 009°38'0 0.0
2017-Dec-16 11:28N 63°49' E 009°38'0 0.0
2017-Dec-16 10:58N 63°49' E 009°38'0 0.0
2017-Dec-16 10:28N 63°49' E 009°38'0 0.0
2017-Dec-16 09:58N 63°49' E 009°38'0 0.0
2017-Dec-16 09:28N 63°49' E 009°38'0 0.0
2017-Dec-16 08:58N 63°49' E 009°38'0 0.0
2017-Dec-16 08:28N 63°49' E 009°38'0 0.0
2017-Dec-16 08:00N 63°49' E 009°38'3 5.1
2017-Dec-16 07:30N 63°47' E 009°34'5 9.1
2017-Dec-16 07:00N 63°44' E 009°26'5 9.2
2017-Dec-16 06:30N 63°42' E 009°17'3 6.0
2017-Dec-16 06:00N 63°40' E 009°14'4 7.9
2017-Dec-16 05:30N 63°42' E 009°06'5 9.6
2017-Dec-16 05:00N 63°41' E 008°55'5 9.8
2017-Dec-16 04:30N 63°40' E 008°44'5 9.0
2017-Dec-16 04:00N 63°39' E 008°34'5 9.1
2017-Dec-16 03:30N 63°38' E 008°24'5 9.5
2017-Dec-16 03:00N 63°37' E 008°14'5 9.5
2017-Dec-16 02:30N 63°36' E 008°03'5 9.4
2017-Dec-16 02:00N 63°35' E 007°53'5 9.7
2017-Dec-16 01:30N 63°34' E 007°42'5 9.5
2017-Dec-16 01:00N 63°33' E 007°31'5 9.3
2017-Dec-16 00:30N 63°32' E 007°21'4 9.0
2017-Dec-16 00:00N 63°31' E 007°12'  
Track history (hours):
 
Tides and Currents Weather Stations Pressure Air Temp Water Temp Dewpoint Dewpoint Depression Visibility Wind Speed Wind Dir Waves Ship Positions

Hav Nordic

Last reported at 2017-Dec-17 17:28 UTC. Time now 2017-Dec-17 17:48 UTC.
Position N 63°49' E 009°38'.

Length 75 m; draft 6 m.

Type: Cargo ship. MMSI: 231812000.

Date/timePositionNaut miles runAvg speedWind from/ knotsBaromVisibWave heightAir tempDewpointWater temp
2017-Dec-17 17:28N 63°49' E 009°38'0 0.0
2017-Dec-17 16:58N 63°49' E 009°38'0 0.0
2017-Dec-17 16:28N 63°49' E 009°38'0 0.0
2017-Dec-17 15:58N 63°49' E 009°38'0 0.0
2017-Dec-17 15:28N 63°49' E 009°38'0 0.0
2017-Dec-17 14:58N 63°49' E 009°38'0 0.0
2017-Dec-17 14:28N 63°49' E 009°38'0 0.0
2017-Dec-17 13:58N 63°49' E 009°38'0 0.0
2017-Dec-17 13:28N 63°49' E 009°38'0 0.0
2017-Dec-17 12:58N 63°49' E 009°38'0 0.0
2017-Dec-17 12:28N 63°49' E 009°38'0 0.0
2017-Dec-17 11:58N 63°49' E 009°38'0 0.0
2017-Dec-17 11:28N 63°49' E 009°38'0 0.0
2017-Dec-17 10:58N 63°49' E 009°38'0 0.0
2017-Dec-17 10:28N 63°49' E 009°38'0 0.0
2017-Dec-17 09:58N 63°49' E 009°38'0 0.0
2017-Dec-17 09:28N 63°49' E 009°38'0 0.0
2017-Dec-17 08:58N 63°49' E 009°38'0 0.0
2017-Dec-17 08:28N 63°49' E 009°38'0 0.0
2017-Dec-17 07:58N 63°49' E 009°38'0 0.0
2017-Dec-17 07:28N 63°49' E 009°38'0 0.0
2017-Dec-17 06:58N 63°49' E 009°38'0 0.0
2017-Dec-17 06:28N 63°49' E 009°38'0 0.0
2017-Dec-17 05:58N 63°49' E 009°38'0 0.0
2017-Dec-17 05:28N 63°49' E 009°38'0 0.0
2017-Dec-17 04:58N 63°49' E 009°38'0 0.0
2017-Dec-17 04:28N 63°49' E 009°38'0 0.0
2017-Dec-17 03:58N 63°49' E 009°38'0 0.0
2017-Dec-17 03:28N 63°49' E 009°38'0 0.0
2017-Dec-17 02:58N 63°49' E 009°38'0 0.0
2017-Dec-17 02:28N 63°49' E 009°38'0 0.0
2017-Dec-17 01:58N 63°49' E 009°38'0 0.0
2017-Dec-17 01:28N 63°49' E 009°38'0 0.0
2017-Dec-17 00:58N 63°49' E 009°38'0 0.0
2017-Dec-17 00:28N 63°49' E 009°38'0 0.0
2017-Dec-16 23:58N 63°49' E 009°38'0 0.0
2017-Dec-16 23:28N 63°49' E 009°38'0 0.0
2017-Dec-16 22:58N 63°49' E 009°38'0 0.0
2017-Dec-16 22:28N 63°49' E 009°38'0 0.0
2017-Dec-16 21:58N 63°49' E 009°38'0 0.0
2017-Dec-16 21:28N 63°49' E 009°38'0 0.0
2017-Dec-16 20:58N 63°49' E 009°38'0 0.0
2017-Dec-16 20:28N 63°49' E 009°38'0 0.0
2017-Dec-16 19:58N 63°49' E 009°38'0 0.0
2017-Dec-16 19:28N 63°49' E 009°38'0 0.0
2017-Dec-16 18:58N 63°49' E 009°38'0 0.0
2017-Dec-16 18:28N 63°49' E 009°38'0 0.0
2017-Dec-16 17:58N 63°49' E 009°38'0 0.0
2017-Dec-16 17:28N 63°49' E 009°38'0 0.0
2017-Dec-16 16:58N 63°49' E 009°38'0 0.0
2017-Dec-16 16:28N 63°49' E 009°38'0 0.0
2017-Dec-16 15:58N 63°49' E 009°38'0 0.0
2017-Dec-16 15:28N 63°49' E 009°38'0 0.0
2017-Dec-16 14:58N 63°49' E 009°38'0 0.0
2017-Dec-16 14:28N 63°49' E 009°38'0 0.0
2017-Dec-16 13:58N 63°49' E 009°38'0 0.0
2017-Dec-16 13:28N 63°49' E 009°38'0 0.0
2017-Dec-16 12:58N 63°49' E 009°38'0 0.0
2017-Dec-16 12:28N 63°49' E 009°38'0 0.0
2017-Dec-16 11:58N 63°49' E 009°38'0 0.0
2017-Dec-16 11:28N 63°49' E 009°38'0 0.0
2017-Dec-16 10:58N 63°49' E 009°38'0 0.0
2017-Dec-16 10:28N 63°49' E 009°38'0 0.0
2017-Dec-16 09:58N 63°49' E 009°38'0 0.0
2017-Dec-16 09:28N 63°49' E 009°38'0 0.0
2017-Dec-16 08:58N 63°49' E 009°38'0 0.0
2017-Dec-16 08:28N 63°49' E 009°38'0 0.0
2017-Dec-16 08:00N 63°49' E 009°38'3 5.1
2017-Dec-16 07:30N 63°47' E 009°34'5 9.1
2017-Dec-16 07:00N 63°44' E 009°26'5 9.2
2017-Dec-16 06:30N 63°42' E 009°17'3 6.0
2017-Dec-16 06:00N 63°40' E 009°14'4 7.9
2017-Dec-16 05:30N 63°42' E 009°06'5 9.6
2017-Dec-16 05:00N 63°41' E 008°55'5 9.8
2017-Dec-16 04:30N 63°40' E 008°44'5 9.0
2017-Dec-16 04:00N 63°39' E 008°34'5 9.1
2017-Dec-16 03:30N 63°38' E 008°24'5 9.5
2017-Dec-16 03:00N 63°37' E 008°14'5 9.5
2017-Dec-16 02:30N 63°36' E 008°03'5 9.4
2017-Dec-16 02:00N 63°35' E 007°53'5 9.7
2017-Dec-16 01:30N 63°34' E 007°42'5 9.5
2017-Dec-16 01:00N 63°33' E 007°31'5 9.3
2017-Dec-16 00:30N 63°32' E 007°21'4 9.0
2017-Dec-16 00:00N 63°31' E 007°12'  

Dump ship's entire track history